Beaumont, CA

11:34 PM PST on November 22, 2014 (GMT -0800)
Four Seasons at Beaumont | Change Station
CLOSE
Current Station
Personal Weather Station
Location: Beaumont, CA
Elevation: 2687 ft
Nearby Weather Stations

Elev 2687 ft 33.90 °N, 116.96 °W | Updated 3 minutes ago

Clear
Clear
48.8 °F
Feels Like 47 °F
N
4.0
Wind Variable Wind from WNW
Gusts 4.0 mph

Today
High -- | Low -- °F
--% Chance of Precip.
Yesterday
High -- | Low -- °F
Precip. -- in
6:26 AM 4:40 PM
New Moon, 1% visible
Pressure 30.05 in
Visibility 10.0 miles
Clouds Clear
Windchill 47 °F
Dew Point 46 °F
Humidity 91%
Rainfall 0.07 in
Snow Depth Not available.
UV 0 out of 12
Pollen 2.80 out of 12
Air Quality Not available.
Flu Activity Not available.
METAR KRIV 230658Z AUTO 00000KT 10SM CLR 09/07 A3006 RMK AO2 SLP175 T00880066

More Conditions Fewer Conditions

Pressure 30.05 in
Visibility 10.0 miles
Clouds Clear
Windchill 47 °F
Dew Point 46 °F
Humidity 91%
Rainfall 0.07 in
Snow Depth Not available.
UV 0 out of 12
Pollen 2.80 out of 12
Air Quality Not available.
Flu Activity Not available.
METAR KRIV 230658Z AUTO 00000KT 10SM CLR 09/07 A3006 RMK AO2 SLP175 T00880066

More Conditions Fewer Conditions

10-Day Weather Forecast

Almanac

Astronomy

Nov. 22, 2014 Rise Set
Actual Time
Civil Twilight
Nautical Twilight
Astronomical Twilight
Moon
Length of Visible Light
Length of Day
Tomorrow will be .
, % of the Moon is Illuminated

Today's Extremes

State Highs State Lows

Community

WunderPhotos

Upload Photos

1,773,024 photos uploaded!

WunderBlogs® & News

Nearby

Air Quality

  Air Quality AQ Index Pollutant
Not available.

Snow Depth

Station Depth Elevation

Earthquake Activity

City Distance Mag. Time & Date
Minimum magnitude displayed is 2.5.

Coastal Water Temperatures

Place Temperature

Nearby Weather Stations